Погода Парагуасу-Паулистана неделю

Сан-Паулу, Бразилия

22 - 28 июля
  • 22июля
    Сегодня
    +16°
    +31°
    Ясно и безоблачно
    ВремяПогодаТемператураВлажностьДавлениеВетер, м/сВероятность осадков
    00:00Ясно и безоблачно+19°C58 %718 мм2.4 м/с5 %
    03:00Ясно и безоблачно+18°C63 %718 мм2.2 м/с5 %
    06:00Ясно и безоблачно+16°C75 %718 мм2.1 м/с5 %
    09:00Ясно и безоблачно+22°C52 %720 мм2.5 м/с5 %
    12:00Ясно и безоблачно+28°C27 %721 мм2.0 м/с5 %
    15:00Ясно и безоблачно+30°C22 %719 мм0.7 м/с5 %
    18:00Ясно и безоблачно+28°C30 %719 мм1.8 м/с5 %
    21:00Ясно и безоблачно+23°C42 %719 мм2.9 м/с5 %
  • 23июля
    Вторник
    +16°
    +31°
    Ясно и безоблачно
    ВремяПогодаТемператураВлажностьДавлениеВетер, м/сВероятность осадков
    00:00Ясно и безоблачно+21°C48 %719 мм3.3 м/с5 %
    03:00Ясно и безоблачно+19°C62 %719 мм3.4 м/с5 %
    06:00Ясно и безоблачно+17°C68 %719 мм3.1 м/с5 %
    09:00Ясно и безоблачно+21°C49 %721 мм3.0 м/с5 %
    12:00Ясно и безоблачно+27°C28 %721 мм3.1 м/с5 %
    15:00Ясно и безоблачно+31°C22 %719 мм2.2 м/с5 %
    18:00Ясно и безоблачно+28°C31 %718 мм2.9 м/с5 %
    21:00Практически безоблачно+23°C41 %719 мм4.0 м/с5 %
  • 24июля
    Среда
    +16°
    +32°
    Небольшая облачность
    ВремяПогодаТемператураВлажностьДавлениеВетер, м/сВероятность осадков
    00:00Небольшая облачность+20°C44 %719 мм3.5 м/с5 %
    03:00Ясно и безоблачно+18°C46 %718 мм3.8 м/с5 %
    06:00Ясно и безоблачно+17°C49 %718 мм3.5 м/с5 %
    09:00Практически безоблачно+22°C41 %720 мм3.3 м/с5 %
    12:00Практически безоблачно+29°C24 %721 мм4.6 м/с5 %
    15:00Небольшая облачность+32°C21 %719 мм2.8 м/с5 %
    18:00Ясно и безоблачно+27°C33 %718 мм2.7 м/с5 %
    21:00Ясно и безоблачно+25°C38 %718 мм3.1 м/с5 %
  • 25июля
    Четверг
    +18°
    +33°
    Ясно и безоблачно
    ВремяПогодаТемператураВлажностьДавлениеВетер, м/сВероятность осадков
    00:00Ясно и безоблачно+22°C46 %718 мм2.5 м/с5 %
    03:00Ясно и безоблачно+19°C52 %718 мм2.4 м/с5 %
    06:00Ясно и безоблачно+17°C60 %718 мм2.0 м/с5 %
    09:00Ясно и безоблачно+22°C42 %719 мм2.8 м/с5 %
    12:00Ясно и безоблачно+30°C26 %719 мм3.3 м/с5 %
    15:00Ясно и безоблачно+32°C22 %717 мм1.8 м/с5 %
    18:00Ясно и безоблачно+28°C32 %716 мм2.0 м/с5 %
    21:00Ясно и безоблачно+24°C39 %717 мм1.9 м/с5 %
  • 26июля
    Пятница
    +19°
    +33°
    Облачно с прояснениями
    ВремяПогодаТемператураВлажностьДавлениеВетер, м/сВероятность осадков
    00:00Ясно и безоблачно+22°C45 %716 мм2.7 м/с5 %
    03:00Практически безоблачно+19°C52 %715 мм2.2 м/с5 %
    06:00Облачно с прояснениями+20°C50 %716 мм2.9 м/с5 %
    09:00Небольшая облачность+24°C38 %718 мм3.0 м/с5 %
    12:00Облачно с прояснениями+30°C23 %718 мм3.3 м/с5 %
    15:00Облачно с прояснениями+32°C21 %717 мм1.7 м/с5 %
    18:00Облачно с прояснениями+28°C31 %717 мм2.0 м/с5 %
    21:00Облачно с прояснениями+25°C36 %717 мм3.0 м/с5 %
Мы используем cookies
Соглашаюсь